sensor_id;sensor_type;location;lat;lon;timestamp;P1;durP1;ratioP1;P2;durP2;ratioP2
72974;SDS011;61166;54.228;37.632;2023-02-28T00:00:25;2.25;;;0.90;;
72974;SDS011;61166;54.228;37.632;2023-02-28T00:02:52;5.65;;;2.00;;
72974;SDS011;61166;54.228;37.632;2023-02-28T00:05:19;6.13;;;2.20;;
72974;SDS011;61166;54.228;37.632;2023-02-28T00:07:46;4.43;;;1.73;;
72974;SDS011;61166;54.228;37.632;2023-02-28T00:10:15;5.13;;;2.03;;
72974;SDS011;61166;54.228;37.632;2023-02-28T00:12:47;4.75;;;1.73;;
72974;SDS011;61166;54.228;37.632;2023-02-28T00:15:14;7.20;;;2.22;;
72974;SDS011;61166;54.228;37.632;2023-02-28T00:17:40;5.35;;;1.67;;
72974;SDS011;61166;54.228;37.632;2023-02-28T00:20:07;6.60;;;2.23;;
72974;SDS011;61166;54.228;37.632;2023-02-28T00:22:35;7.72;;;2.55;;
72974;SDS011;61166;54.228;37.632;2023-02-28T00:25:02;7.65;;;2.38;;
72974;SDS011;61166;54.228;37.632;2023-02-28T00:27:29;6.43;;;2.35;;
72974;SDS011;61166;54.228;37.632;2023-02-28T00:29:55;5.68;;;2.05;;
72974;SDS011;61166;54.228;37.632;2023-02-28T00:32:22;5.70;;;2.27;;
72974;SDS011;61166;54.228;37.632;2023-02-28T00:34:49;6.10;;;2.28;;
72974;SDS011;61166;54.228;37.632;2023-02-28T00:37:15;4.95;;;2.10;;
72974;SDS011;61166;54.228;37.632;2023-02-28T00:39:42;7.93;;;3.10;;
72974;SDS011;61166;54.228;37.632;2023-02-28T00:42:08;7.80;;;2.97;;
72974;SDS011;61166;54.228;37.632;2023-02-28T00:44:34;8.57;;;3.20;;
72974;SDS011;61166;54.228;37.632;2023-02-28T00:47:01;7.75;;;2.45;;
72974;SDS011;61166;54.228;37.632;2023-02-28T00:49:27;6.93;;;2.55;;
72974;SDS011;61166;54.228;37.632;2023-02-28T00:51:54;6.50;;;2.88;;
72974;SDS011;61166;54.228;37.632;2023-02-28T00:54:21;7.65;;;3.33;;
72974;SDS011;61166;54.228;37.632;2023-02-28T00:56:48;8.20;;;2.73;;
72974;SDS011;61166;54.228;37.632;2023-02-28T00:59:15;9.88;;;4.03;;
72974;SDS011;61166;54.228;37.632;2023-02-28T01:01:43;7.72;;;3.65;;
72974;SDS011;61166;54.228;37.632;2023-02-28T01:04:10;9.15;;;3.08;;
72974;SDS011;61166;54.228;37.632;2023-02-28T01:06:36;9.02;;;3.83;;
72974;SDS011;61166;54.228;37.632;2023-02-28T01:09:04;7.33;;;2.27;;
72974;SDS011;61166;54.228;37.632;2023-02-28T01:11:32;8.40;;;3.05;;
72974;SDS011;61166;54.228;37.632;2023-02-28T01:13:59;5.85;;;2.70;;
72974;SDS011;61166;54.228;37.632;2023-02-28T01:16:25;8.20;;;2.45;;
72974;SDS011;61166;54.228;37.632;2023-02-28T01:18:52;5.45;;;2.42;;
72974;SDS011;61166;54.228;37.632;2023-02-28T01:21:20;6.80;;;2.77;;
72974;SDS011;61166;54.228;37.632;2023-02-28T01:23:47;6.38;;;2.38;;
72974;SDS011;61166;54.228;37.632;2023-02-28T01:26:18;5.07;;;2.72;;
72974;SDS011;61166;54.228;37.632;2023-02-28T01:28:44;8.43;;;2.85;;
72974;SDS011;61166;54.228;37.632;2023-02-28T01:31:11;9.02;;;3.38;;
72974;SDS011;61166;54.228;37.632;2023-02-28T01:33:38;7.93;;;2.93;;
72974;SDS011;61166;54.228;37.632;2023-02-28T01:36:06;8.60;;;2.80;;
72974;SDS011;61166;54.228;37.632;2023-02-28T01:38:33;11.18;;;4.13;;
72974;SDS011;61166;54.228;37.632;2023-02-28T01:41:00;4.45;;;1.40;;
72974;SDS011;61166;54.228;37.632;2023-02-28T01:46:16;6.30;;;2.67;;
72974;SDS011;61166;54.228;37.632;2023-02-28T01:48:44;8.20;;;2.95;;
72974;SDS011;61166;54.228;37.632;2023-02-28T01:51:14;9.05;;;3.15;;
72974;SDS011;61166;54.228;37.632;2023-02-28T01:53:46;9.20;;;3.30;;
72974;SDS011;61166;54.228;37.632;2023-02-28T01:56:13;6.32;;;3.00;;
72974;SDS011;61166;54.228;37.632;2023-02-28T01:58:42;9.93;;;3.73;;
72974;SDS011;61166;54.228;37.632;2023-02-28T02:01:09;5.65;;;1.52;;
72974;SDS011;61166;54.228;37.632;2023-02-28T02:03:35;8.63;;;3.38;;
72974;SDS011;61166;54.228;37.632;2023-02-28T02:06:02;9.77;;;3.80;;
72974;SDS011;61166;54.228;37.632;2023-02-28T02:08:28;7.57;;;2.88;;
72974;SDS011;61166;54.228;37.632;2023-02-28T02:10:55;8.20;;;3.53;;
72974;SDS011;61166;54.228;37.632;2023-02-28T02:23:51;9.53;;;3.83;;
72974;SDS011;61166;54.228;37.632;2023-02-28T02:26:28;9.10;;;3.08;;
72974;SDS011;61166;54.228;37.632;2023-02-28T02:39:44;5.82;;;1.38;;
72974;SDS011;61166;54.228;37.632;2023-02-28T02:42:13;7.80;;;2.78;;
72974;SDS011;61166;54.228;37.632;2023-02-28T02:44:51;8.15;;;2.58;;
72974;SDS011;61166;54.228;37.632;2023-02-28T02:47:19;10.60;;;4.03;;
72974;SDS011;61166;54.228;37.632;2023-02-28T02:49:48;11.20;;;2.93;;
72974;SDS011;61166;54.228;37.632;2023-02-28T02:52:16;6.63;;;2.67;;
72974;SDS011;61166;54.228;37.632;2023-02-28T02:54:45;9.02;;;2.13;;
72974;SDS011;61166;54.228;37.632;2023-02-28T02:57:14;8.02;;;2.45;;
72974;SDS011;61166;54.228;37.632;2023-02-28T02:59:41;7.82;;;3.40;;
72974;SDS011;61166;54.228;37.632;2023-02-28T03:02:10;9.47;;;4.00;;
72974;SDS011;61166;54.228;37.632;2023-02-28T03:04:39;7.03;;;2.78;;
72974;SDS011;61166;54.228;37.632;2023-02-28T03:07:06;8.65;;;3.58;;
72974;SDS011;61166;54.228;37.632;2023-02-28T03:09:33;7.60;;;3.20;;
72974;SDS011;61166;54.228;37.632;2023-02-28T03:12:00;11.15;;;4.07;;
72974;SDS011;61166;54.228;37.632;2023-02-28T03:14:30;10.77;;;4.27;;
72974;SDS011;61166;54.228;37.632;2023-02-28T03:19:37;8.43;;;3.35;;
72974;SDS011;61166;54.228;37.632;2023-02-28T03:27:41;9.10;;;3.87;;
72974;SDS011;61166;54.228;37.632;2023-02-28T03:30:10;7.15;;;3.47;;
72974;SDS011;61166;54.228;37.632;2023-02-28T03:32:40;11.43;;;3.95;;
72974;SDS011;61166;54.228;37.632;2023-02-28T03:35:12;10.00;;;2.85;;
72974;SDS011;61166;54.228;37.632;2023-02-28T03:37:42;7.40;;;3.25;;
72974;SDS011;61166;54.228;37.632;2023-02-28T03:40:28;8.23;;;3.40;;
72974;SDS011;61166;54.228;37.632;2023-02-28T03:42:58;6.07;;;2.97;;
72974;SDS011;61166;54.228;37.632;2023-02-28T03:45:26;6.68;;;2.83;;
72974;SDS011;61166;54.228;37.632;2023-02-28T03:50:29;13.85;;;3.92;;
72974;SDS011;61166;54.228;37.632;2023-02-28T03:53:07;10.97;;;4.07;;
72974;SDS011;61166;54.228;37.632;2023-02-28T03:55:37;11.25;;;4.70;;
72974;SDS011;61166;54.228;37.632;2023-02-28T03:58:11;9.77;;;3.83;;
72974;SDS011;61166;54.228;37.632;2023-02-28T04:00:40;5.93;;;2.97;;
72974;SDS011;61166;54.228;37.632;2023-02-28T04:03:07;6.78;;;2.35;;
72974;SDS011;61166;54.228;37.632;2023-02-28T04:05:39;9.20;;;3.80;;
72974;SDS011;61166;54.228;37.632;2023-02-28T04:08:10;7.28;;;2.70;;
72974;SDS011;61166;54.228;37.632;2023-02-28T04:10:36;7.95;;;2.75;;
72974;SDS011;61166;54.228;37.632;2023-02-28T04:13:03;8.13;;;3.05;;
72974;SDS011;61166;54.228;37.632;2023-02-28T04:15:29;7.72;;;2.53;;
72974;SDS011;61166;54.228;37.632;2023-02-28T04:17:56;8.47;;;3.60;;
72974;SDS011;61166;54.228;37.632;2023-02-28T04:20:22;10.90;;;4.40;;
72974;SDS011;61166;54.228;37.632;2023-02-28T04:22:49;8.85;;;3.42;;
72974;SDS011;61166;54.228;37.632;2023-02-28T04:25:15;10.10;;;3.92;;
72974;SDS011;61166;54.228;37.632;2023-02-28T04:27:41;25.90;;;10.38;;
72974;SDS011;61166;54.228;37.632;2023-02-28T04:30:08;9.50;;;4.63;;
72974;SDS011;61166;54.228;37.632;2023-02-28T04:32:35;9.10;;;4.47;;
72974;SDS011;61166;54.228;37.632;2023-02-28T04:35:01;44.00;;;15.57;;
72974;SDS011;61166;54.228;37.632;2023-02-28T04:37:28;7.45;;;3.08;;
72974;SDS011;61166;54.228;37.632;2023-02-28T04:39:54;8.23;;;3.30;;
72974;SDS011;61166;54.228;37.632;2023-02-28T04:42:21;7.57;;;3.83;;
72974;SDS011;61166;54.228;37.632;2023-02-28T04:44:47;9.07;;;4.82;;
72974;SDS011;61166;54.228;37.632;2023-02-28T04:47:13;6.70;;;4.75;;
72974;SDS011;61166;54.228;37.632;2023-02-28T04:49:40;12.23;;;4.53;;
72974;SDS011;61166;54.228;37.632;2023-02-28T04:52:07;6.55;;;3.55;;
72974;SDS011;61166;54.228;37.632;2023-02-28T04:54:34;9.97;;;5.70;;
72974;SDS011;61166;54.228;37.632;2023-02-28T04:57:00;9.85;;;5.50;;
72974;SDS011;61166;54.228;37.632;2023-02-28T04:59:27;10.68;;;7.05;;
72974;SDS011;61166;54.228;37.632;2023-02-28T05:01:53;12.52;;;9.35;;
72974;SDS011;61166;54.228;37.632;2023-02-28T05:04:20;11.15;;;8.32;;
72974;SDS011;61166;54.228;37.632;2023-02-28T05:06:46;11.00;;;8.60;;
72974;SDS011;61166;54.228;37.632;2023-02-28T05:09:13;9.75;;;8.40;;
72974;SDS011;61166;54.228;37.632;2023-02-28T05:11:39;9.50;;;7.93;;
72974;SDS011;61166;54.228;37.632;2023-02-28T05:14:09;9.25;;;8.10;;
72974;SDS011;61166;54.228;37.632;2023-02-28T05:16:36;11.02;;;8.60;;
72974;SDS011;61166;54.228;37.632;2023-02-28T05:19:03;11.87;;;10.87;;
72974;SDS011;61166;54.228;37.632;2023-02-28T05:21:30;13.68;;;9.63;;
72974;SDS011;61166;54.228;37.632;2023-02-28T05:23:58;12.25;;;11.15;;
72974;SDS011;61166;54.228;37.632;2023-02-28T05:26:25;12.68;;;11.40;;
72974;SDS011;61166;54.228;37.632;2023-02-28T05:28:53;11.70;;;10.70;;
72974;SDS011;61166;54.228;37.632;2023-02-28T05:31:19;9.60;;;8.60;;
72974;SDS011;61166;54.228;37.632;2023-02-28T05:33:46;13.18;;;9.25;;
72974;SDS011;61166;54.228;37.632;2023-02-28T05:36:13;11.25;;;9.15;;
72974;SDS011;61166;54.228;37.632;2023-02-28T05:38:40;9.52;;;8.07;;
72974;SDS011;61166;54.228;37.632;2023-02-28T05:41:07;10.73;;;9.63;;
72974;SDS011;61166;54.228;37.632;2023-02-28T05:43:35;10.27;;;9.17;;
72974;SDS011;61166;54.228;37.632;2023-02-28T05:46:03;9.63;;;8.15;;
72974;SDS011;61166;54.228;37.632;2023-02-28T05:48:32;9.18;;;8.00;;
72974;SDS011;61166;54.228;37.632;2023-02-28T05:51:02;10.82;;;7.82;;
72974;SDS011;61166;54.228;37.632;2023-02-28T05:53:30;8.43;;;7.38;;
72974;SDS011;61166;54.228;37.632;2023-02-28T05:55:56;7.93;;;6.67;;
72974;SDS011;61166;54.228;37.632;2023-02-28T05:58:23;7.72;;;6.80;;
72974;SDS011;61166;54.228;37.632;2023-02-28T06:00:50;8.95;;;6.53;;
72974;SDS011;61166;54.228;37.632;2023-02-28T06:03:17;12.63;;;11.32;;
72974;SDS011;61166;54.228;37.632;2023-02-28T06:05:43;8.45;;;7.25;;
72974;SDS011;61166;54.228;37.632;2023-02-28T06:08:10;8.57;;;7.03;;
72974;SDS011;61166;54.228;37.632;2023-02-28T06:10:36;8.27;;;6.22;;
72974;SDS011;61166;54.228;37.632;2023-02-28T06:13:03;7.75;;;6.43;;
72974;SDS011;61166;54.228;37.632;2023-02-28T06:15:30;8.45;;;6.35;;
72974;SDS011;61166;54.228;37.632;2023-02-28T06:17:58;8.48;;;5.97;;
72974;SDS011;61166;54.228;37.632;2023-02-28T06:20:26;8.47;;;6.00;;
72974;SDS011;61166;54.228;37.632;2023-02-28T06:22:53;8.02;;;6.10;;
72974;SDS011;61166;54.228;37.632;2023-02-28T06:25:20;8.05;;;6.97;;
72974;SDS011;61166;54.228;37.632;2023-02-28T06:27:46;8.55;;;7.05;;
72974;SDS011;61166;54.228;37.632;2023-02-28T06:30:13;6.85;;;5.75;;
72974;SDS011;61166;54.228;37.632;2023-02-28T06:32:40;9.30;;;6.43;;
72974;SDS011;61166;54.228;37.632;2023-02-28T06:35:08;7.88;;;5.20;;
72974;SDS011;61166;54.228;37.632;2023-02-28T06:37:34;8.80;;;6.80;;
72974;SDS011;61166;54.228;37.632;2023-02-28T06:40:01;9.20;;;6.93;;
72974;SDS011;61166;54.228;37.632;2023-02-28T06:42:28;9.68;;;6.57;;
72974;SDS011;61166;54.228;37.632;2023-02-28T06:44:55;8.10;;;6.23;;
72974;SDS011;61166;54.228;37.632;2023-02-28T06:47:22;6.93;;;4.80;;
72974;SDS011;61166;54.228;37.632;2023-02-28T06:49:49;9.15;;;5.57;;
72974;SDS011;61166;54.228;37.632;2023-02-28T06:52:16;9.10;;;6.00;;
72974;SDS011;61166;54.228;37.632;2023-02-28T06:54:43;9.07;;;5.85;;
72974;SDS011;61166;54.228;37.632;2023-02-28T06:57:09;8.20;;;5.90;;
72974;SDS011;61166;54.228;37.632;2023-02-28T06:59:36;7.32;;;5.28;;
72974;SDS011;61166;54.228;37.632;2023-02-28T07:02:02;6.88;;;5.60;;
72974;SDS011;61166;54.228;37.632;2023-02-28T07:04:29;6.05;;;4.65;;
72974;SDS011;61166;54.228;37.632;2023-02-28T07:06:56;8.35;;;6.00;;
72974;SDS011;61166;54.228;37.632;2023-02-28T07:09:22;9.43;;;6.13;;
72974;SDS011;61166;54.228;37.632;2023-02-28T07:11:49;16.40;;;5.72;;
72974;SDS011;61166;54.228;37.632;2023-02-28T07:14:16;12.10;;;5.45;;
72974;SDS011;61166;54.228;37.632;2023-02-28T07:16:42;17.88;;;5.20;;
72974;SDS011;61166;54.228;37.632;2023-02-28T07:19:09;16.30;;;6.05;;
72974;SDS011;61166;54.228;37.632;2023-02-28T07:21:35;8.00;;;5.27;;
72974;SDS011;61166;54.228;37.632;2023-02-28T07:24:02;8.20;;;4.75;;
72974;SDS011;61166;54.228;37.632;2023-02-28T07:26:28;9.25;;;6.07;;
72974;SDS011;61166;54.228;37.632;2023-02-28T07:28:55;18.27;;;5.53;;
72974;SDS011;61166;54.228;37.632;2023-02-28T07:31:22;18.83;;;5.90;;
72974;SDS011;61166;54.228;37.632;2023-02-28T07:33:48;9.00;;;5.00;;
72974;SDS011;61166;54.228;37.632;2023-02-28T07:36:16;10.10;;;6.65;;
72974;SDS011;61166;54.228;37.632;2023-02-28T07:38:47;10.20;;;6.80;;
72974;SDS011;61166;54.228;37.632;2023-02-28T07:41:15;6.95;;;5.65;;
72974;SDS011;61166;54.228;37.632;2023-02-28T07:43:45;9.57;;;6.55;;
72974;SDS011;61166;54.228;37.632;2023-02-28T07:46:14;9.07;;;5.83;;
72974;SDS011;61166;54.228;37.632;2023-02-28T07:48:42;9.27;;;6.10;;
72974;SDS011;61166;54.228;37.632;2023-02-28T07:51:09;9.13;;;5.88;;
72974;SDS011;61166;54.228;37.632;2023-02-28T07:53:36;10.48;;;5.72;;
72974;SDS011;61166;54.228;37.632;2023-02-28T07:56:03;7.63;;;5.03;;
72974;SDS011;61166;54.228;37.632;2023-02-28T07:58:30;9.67;;;6.47;;
72974;SDS011;61166;54.228;37.632;2023-02-28T08:00:57;8.50;;;5.30;;
72974;SDS011;61166;54.228;37.632;2023-02-28T08:03:32;10.77;;;6.38;;
72974;SDS011;61166;54.228;37.632;2023-02-28T08:06:00;8.88;;;6.18;;
72974;SDS011;61166;54.228;37.632;2023-02-28T08:08:26;10.90;;;7.20;;
72974;SDS011;61166;54.228;37.632;2023-02-28T08:10:53;11.00;;;6.13;;
72974;SDS011;61166;54.228;37.632;2023-02-28T08:13:22;10.02;;;6.45;;
72974;SDS011;61166;54.228;37.632;2023-02-28T08:15:48;10.90;;;7.25;;
72974;SDS011;61166;54.228;37.632;2023-02-28T08:18:15;10.07;;;6.57;;
72974;SDS011;61166;54.228;37.632;2023-02-28T08:20:42;10.75;;;7.28;;
72974;SDS011;61166;54.228;37.632;2023-02-28T08:23:08;9.40;;;6.40;;
72974;SDS011;61166;54.228;37.632;2023-02-28T08:25:35;11.80;;;6.05;;
72974;SDS011;61166;54.228;37.632;2023-02-28T08:28:01;10.27;;;6.07;;
72974;SDS011;61166;54.228;37.632;2023-02-28T08:30:28;11.18;;;6.13;;
72974;SDS011;61166;54.228;37.632;2023-02-28T08:32:55;10.18;;;6.15;;
72974;SDS011;61166;54.228;37.632;2023-02-28T08:35:22;11.03;;;6.40;;
72974;SDS011;61166;54.228;37.632;2023-02-28T08:37:49;9.77;;;6.07;;
72974;SDS011;61166;54.228;37.632;2023-02-28T08:40:16;8.30;;;6.10;;
72974;SDS011;61166;54.228;37.632;2023-02-28T08:42:44;9.05;;;5.47;;
72974;SDS011;61166;54.228;37.632;2023-02-28T08:45:11;9.32;;;5.32;;
72974;SDS011;61166;54.228;37.632;2023-02-28T08:47:38;6.67;;;4.10;;
72974;SDS011;61166;54.228;37.632;2023-02-28T08:50:05;6.97;;;4.95;;
72974;SDS011;61166;54.228;37.632;2023-02-28T08:52:33;8.93;;;6.03;;
72974;SDS011;61166;54.228;37.632;2023-02-28T08:54:59;9.27;;;5.95;;
72974;SDS011;61166;54.228;37.632;2023-02-28T08:57:26;9.07;;;5.05;;
72974;SDS011;61166;54.228;37.632;2023-02-28T08:59:53;8.30;;;5.33;;
72974;SDS011;61166;54.228;37.632;2023-02-28T09:02:19;8.38;;;4.82;;
72974;SDS011;61166;54.228;37.632;2023-02-28T09:04:46;7.45;;;5.13;;
72974;SDS011;61166;54.228;37.632;2023-02-28T09:07:12;8.18;;;4.93;;
72974;SDS011;61166;54.228;37.632;2023-02-28T09:09:39;6.53;;;4.40;;
72974;SDS011;61166;54.228;37.632;2023-02-28T09:12:06;7.07;;;4.10;;
72974;SDS011;61166;54.228;37.632;2023-02-28T09:14:32;6.47;;;4.00;;
72974;SDS011;61166;54.228;37.632;2023-02-28T09:16:59;7.15;;;4.70;;
72974;SDS011;61166;54.228;37.632;2023-02-28T09:19:26;7.90;;;4.28;;
72974;SDS011;61166;54.228;37.632;2023-02-28T09:21:52;6.97;;;4.28;;
72974;SDS011;61166;54.228;37.632;2023-02-28T09:24:19;5.73;;;3.63;;
72974;SDS011;61166;54.228;37.632;2023-02-28T09:26:46;6.72;;;4.18;;
72974;SDS011;61166;54.228;37.632;2023-02-28T09:29:29;6.97;;;4.00;;
72974;SDS011;61166;54.228;37.632;2023-02-28T09:34:53;5.93;;;3.55;;
72974;SDS011;61166;54.228;37.632;2023-02-28T09:37:21;5.38;;;3.33;;
72974;SDS011;61166;54.228;37.632;2023-02-28T09:39:47;9.93;;;2.60;;
72974;SDS011;61166;54.228;37.632;2023-02-28T09:42:17;6.93;;;3.40;;
72974;SDS011;61166;54.228;37.632;2023-02-28T09:44:45;7.20;;;3.38;;
72974;SDS011;61166;54.228;37.632;2023-02-28T09:47:18;6.82;;;3.45;;
72974;SDS011;61166;54.228;37.632;2023-02-28T09:49:47;6.85;;;3.58;;
72974;SDS011;61166;54.228;37.632;2023-02-28T09:52:18;6.15;;;3.42;;
72974;SDS011;61166;54.228;37.632;2023-02-28T09:54:45;5.38;;;2.75;;
72974;SDS011;61166;54.228;37.632;2023-02-28T10:05:03;5.90;;;2.42;;
72974;SDS011;61166;54.228;37.632;2023-02-28T10:09:57;6.43;;;2.85;;
72974;SDS011;61166;54.228;37.632;2023-02-28T10:12:24;5.22;;;2.67;;
72974;SDS011;61166;54.228;37.632;2023-02-28T10:14:52;6.43;;;2.63;;
72974;SDS011;61166;54.228;37.632;2023-02-28T10:17:21;5.70;;;2.75;;
72974;SDS011;61166;54.228;37.632;2023-02-28T10:20:07;6.83;;;3.33;;
72974;SDS011;61166;54.228;37.632;2023-02-28T10:25:05;8.75;;;3.28;;
72974;SDS011;61166;54.228;37.632;2023-02-28T10:27:41;6.30;;;3.35;;
72974;SDS011;61166;54.228;37.632;2023-02-28T10:30:09;9.25;;;3.88;;
72974;SDS011;61166;54.228;37.632;2023-02-28T10:32:37;5.63;;;2.93;;
72974;SDS011;61166;54.228;37.632;2023-02-28T10:35:15;6.13;;;3.15;;
72974;SDS011;61166;54.228;37.632;2023-02-28T10:37:42;7.57;;;2.85;;
72974;SDS011;61166;54.228;37.632;2023-02-28T10:40:54;6.43;;;3.30;;
72974;SDS011;61166;54.228;37.632;2023-02-28T10:43:00;6.97;;;2.20;;
72974;SDS011;61166;54.228;37.632;2023-02-28T10:45:28;5.13;;;2.40;;
72974;SDS011;61166;54.228;37.632;2023-02-28T10:47:55;7.60;;;3.58;;
72974;SDS011;61166;54.228;37.632;2023-02-28T10:50:29;8.43;;;3.35;;
72974;SDS011;61166;54.228;37.632;2023-02-28T11:01:15;7.50;;;3.25;;
72974;SDS011;61166;54.228;37.632;2023-02-28T11:03:43;6.00;;;3.10;;
72974;SDS011;61166;54.228;37.632;2023-02-28T11:06:17;7.32;;;3.28;;
72974;SDS011;61166;54.228;37.632;2023-02-28T11:08:51;9.15;;;2.70;;
72974;SDS011;61166;54.228;37.632;2023-02-28T11:11:18;6.45;;;3.80;;
72974;SDS011;61166;54.228;37.632;2023-02-28T11:13:46;6.72;;;2.90;;
72974;SDS011;61166;54.228;37.632;2023-02-28T11:16:13;6.40;;;3.05;;
72974;SDS011;61166;54.228;37.632;2023-02-28T11:18:46;5.45;;;2.67;;
72974;SDS011;61166;54.228;37.632;2023-02-28T11:21:24;7.68;;;3.20;;
72974;SDS011;61166;54.228;37.632;2023-02-28T11:23:53;5.73;;;2.77;;
72974;SDS011;61166;54.228;37.632;2023-02-28T11:26:36;5.95;;;2.90;;
72974;SDS011;61166;54.228;37.632;2023-02-28T11:29:11;4.68;;;2.28;;
72974;SDS011;61166;54.228;37.632;2023-02-28T11:31:38;5.90;;;2.30;;
72974;SDS011;61166;54.228;37.632;2023-02-28T11:34:21;5.28;;;2.17;;
72974;SDS011;61166;54.228;37.632;2023-02-28T11:36:48;6.17;;;2.17;;
72974;SDS011;61166;54.228;37.632;2023-02-28T11:39:15;6.40;;;2.45;;
72974;SDS011;61166;54.228;37.632;2023-02-28T11:41:48;5.55;;;2.05;;
72974;SDS011;61166;54.228;37.632;2023-02-28T12:10:27;7.35;;;2.78;;
72974;SDS011;61166;54.228;37.632;2023-02-28T12:26:14;4.97;;;1.90;;
72974;SDS011;61166;54.228;37.632;2023-02-28T12:28:53;6.00;;;2.67;;
72974;SDS011;61166;54.228;37.632;2023-02-28T12:31:21;6.22;;;2.75;;
72974;SDS011;61166;54.228;37.632;2023-02-28T12:33:51;7.38;;;3.67;;
72974;SDS011;61166;54.228;37.632;2023-02-28T12:36:19;7.72;;;3.63;;
72974;SDS011;61166;54.228;37.632;2023-02-28T12:38:53;5.97;;;3.00;;
72974;SDS011;61166;54.228;37.632;2023-02-28T12:41:26;5.83;;;2.53;;
72974;SDS011;61166;54.228;37.632;2023-02-28T12:44:56;7.47;;;3.75;;
72974;SDS011;61166;54.228;37.632;2023-02-28T12:46:50;5.00;;;2.22;;
72974;SDS011;61166;54.228;37.632;2023-02-28T12:52:07;4.70;;;1.88;;
72974;SDS011;61166;54.228;37.632;2023-02-28T12:54:43;5.50;;;2.10;;
72974;SDS011;61166;54.228;37.632;2023-02-28T12:57:15;7.40;;;2.63;;
72974;SDS011;61166;54.228;37.632;2023-02-28T12:59:49;4.57;;;2.20;;
72974;SDS011;61166;54.228;37.632;2023-02-28T13:10:12;6.88;;;3.20;;
72974;SDS011;61166;54.228;37.632;2023-02-28T13:12:47;14.20;;;2.97;;
72974;SDS011;61166;54.228;37.632;2023-02-28T13:15:32;6.05;;;2.78;;
72974;SDS011;61166;54.228;37.632;2023-02-28T13:17:59;5.13;;;2.50;;
72974;SDS011;61166;54.228;37.632;2023-02-28T13:20:26;6.90;;;2.50;;
72974;SDS011;61166;54.228;37.632;2023-02-28T13:22:54;6.70;;;3.47;;
72974;SDS011;61166;54.228;37.632;2023-02-28T13:28:00;7.32;;;3.17;;
72974;SDS011;61166;54.228;37.632;2023-02-28T13:33:22;6.60;;;2.73;;
72974;SDS011;61166;54.228;37.632;2023-02-28T13:49:33;5.90;;;2.50;;
72974;SDS011;61166;54.228;37.632;2023-02-28T13:54:54;9.27;;;3.72;;
72974;SDS011;61166;54.228;37.632;2023-02-28T14:02:38;5.53;;;2.55;;
72974;SDS011;61166;54.228;37.632;2023-02-28T14:05:19;5.50;;;2.92;;
72974;SDS011;61166;54.228;37.632;2023-02-28T14:07:50;5.72;;;2.47;;
72974;SDS011;61166;54.228;37.632;2023-02-28T14:12:55;6.30;;;2.90;;
72974;SDS011;61166;54.228;37.632;2023-02-28T14:20:46;6.25;;;3.03;;
72974;SDS011;61166;54.228;37.632;2023-02-28T14:31:42;8.18;;;3.28;;
72974;SDS011;61166;54.228;37.632;2023-02-28T14:34:14;6.05;;;2.65;;
72974;SDS011;61166;54.228;37.632;2023-02-28T14:36:43;8.55;;;3.78;;
72974;SDS011;61166;54.228;37.632;2023-02-28T14:39:13;9.17;;;3.17;;
72974;SDS011;61166;54.228;37.632;2023-02-28T14:41:41;6.05;;;3.03;;
72974;SDS011;61166;54.228;37.632;2023-02-28T14:46:50;6.55;;;2.95;;
72974;SDS011;61166;54.228;37.632;2023-02-28T14:49:24;6.07;;;2.45;;
72974;SDS011;61166;54.228;37.632;2023-02-28T14:54:37;8.38;;;4.45;;
72974;SDS011;61166;54.228;37.632;2023-02-28T14:57:04;9.23;;;3.20;;
72974;SDS011;61166;54.228;37.632;2023-02-28T14:59:32;6.97;;;1.90;;
72974;SDS011;61166;54.228;37.632;2023-02-28T15:04:51;5.17;;;2.30;;
72974;SDS011;61166;54.228;37.632;2023-02-28T15:07:18;7.30;;;3.38;;
72974;SDS011;61166;54.228;37.632;2023-02-28T15:09:44;7.65;;;3.53;;
72974;SDS011;61166;54.228;37.632;2023-02-28T15:12:13;6.93;;;3.05;;
72974;SDS011;61166;54.228;37.632;2023-02-28T15:14:42;9.30;;;4.10;;
72974;SDS011;61166;54.228;37.632;2023-02-28T15:17:22;8.93;;;3.50;;
72974;SDS011;61166;54.228;37.632;2023-02-28T15:19:50;9.40;;;3.85;;
72974;SDS011;61166;54.228;37.632;2023-02-28T15:22:19;9.68;;;3.85;;
72974;SDS011;61166;54.228;37.632;2023-02-28T15:24:51;8.82;;;2.75;;
72974;SDS011;61166;54.228;37.632;2023-02-28T15:29:46;5.67;;;2.57;;
72974;SDS011;61166;54.228;37.632;2023-02-28T15:32:21;7.65;;;3.17;;
72974;SDS011;61166;54.228;37.632;2023-02-28T15:34:49;8.52;;;3.60;;
72974;SDS011;61166;54.228;37.632;2023-02-28T15:40:10;5.20;;;2.10;;
72974;SDS011;61166;54.228;37.632;2023-02-28T15:42:37;6.03;;;3.03;;
72974;SDS011;61166;54.228;37.632;2023-02-28T15:45:03;8.02;;;3.33;;
72974;SDS011;61166;54.228;37.632;2023-02-28T15:47:30;7.70;;;2.70;;
72974;SDS011;61166;54.228;37.632;2023-02-28T15:49:58;6.45;;;2.60;;
72974;SDS011;61166;54.228;37.632;2023-02-28T15:52:29;8.80;;;3.25;;
72974;SDS011;61166;54.228;37.632;2023-02-28T15:54:55;8.63;;;3.47;;
72974;SDS011;61166;54.228;37.632;2023-02-28T15:57:23;4.63;;;2.10;;
72974;SDS011;61166;54.228;37.632;2023-02-28T15:59:57;7.95;;;3.95;;
72974;SDS011;61166;54.228;37.632;2023-02-28T16:02:34;8.48;;;3.35;;
72974;SDS011;61166;54.228;37.632;2023-02-28T16:05:47;7.47;;;3.30;;
72974;SDS011;61166;54.228;37.632;2023-02-28T16:07:47;7.03;;;3.00;;
72974;SDS011;61166;54.228;37.632;2023-02-28T16:10:15;7.35;;;2.65;;
72974;SDS011;61166;54.228;37.632;2023-02-28T16:12:41;6.95;;;2.97;;
72974;SDS011;61166;54.228;37.632;2023-02-28T16:15:14;4.95;;;2.47;;
72974;SDS011;61166;54.228;37.632;2023-02-28T16:17:43;6.50;;;3.17;;
72974;SDS011;61166;54.228;37.632;2023-02-28T16:20:20;5.23;;;2.47;;
72974;SDS011;61166;54.228;37.632;2023-02-28T16:22:47;7.38;;;3.00;;
72974;SDS011;61166;54.228;37.632;2023-02-28T16:25:24;5.63;;;2.22;;
72974;SDS011;61166;54.228;37.632;2023-02-28T16:27:52;8.23;;;3.83;;
72974;SDS011;61166;54.228;37.632;2023-02-28T16:30:24;4.43;;;2.33;;
72974;SDS011;61166;54.228;37.632;2023-02-28T16:32:51;8.67;;;3.60;;
72974;SDS011;61166;54.228;37.632;2023-02-28T16:35:18;5.78;;;2.58;;
72974;SDS011;61166;54.228;37.632;2023-02-28T16:37:45;9.98;;;3.20;;
72974;SDS011;61166;54.228;37.632;2023-02-28T16:40:16;6.82;;;2.65;;
72974;SDS011;61166;54.228;37.632;2023-02-28T16:42:43;4.90;;;2.42;;
72974;SDS011;61166;54.228;37.632;2023-02-28T16:45:14;9.73;;;3.90;;
72974;SDS011;61166;54.228;37.632;2023-02-28T16:47:41;5.53;;;1.90;;
72974;SDS011;61166;54.228;37.632;2023-02-28T16:50:14;4.53;;;2.03;;
72974;SDS011;61166;54.228;37.632;2023-02-28T16:52:41;6.38;;;2.30;;
72974;SDS011;61166;54.228;37.632;2023-02-28T16:55:08;6.22;;;2.63;;
72974;SDS011;61166;54.228;37.632;2023-02-28T16:57:34;4.90;;;2.33;;
72974;SDS011;61166;54.228;37.632;2023-02-28T17:00:01;9.18;;;4.47;;
72974;SDS011;61166;54.228;37.632;2023-02-28T17:02:29;8.30;;;3.45;;
72974;SDS011;61166;54.228;37.632;2023-02-28T17:04:55;10.27;;;3.20;;
72974;SDS011;61166;54.228;37.632;2023-02-28T17:07:22;5.93;;;2.22;;
72974;SDS011;61166;54.228;37.632;2023-02-28T17:09:48;7.33;;;2.70;;
72974;SDS011;61166;54.228;37.632;2023-02-28T17:12:15;6.18;;;2.47;;
72974;SDS011;61166;54.228;37.632;2023-02-28T17:14:41;4.72;;;1.83;;
72974;SDS011;61166;54.228;37.632;2023-02-28T17:17:09;7.30;;;3.05;;
72974;SDS011;61166;54.228;37.632;2023-02-28T17:19:42;7.35;;;3.28;;
72974;SDS011;61166;54.228;37.632;2023-02-28T17:22:09;6.73;;;3.20;;
72974;SDS011;61166;54.228;37.632;2023-02-28T17:24:35;8.18;;;3.15;;
72974;SDS011;61166;54.228;37.632;2023-02-28T17:27:03;4.63;;;2.25;;